Time;durP1;ratioP1;P1;durP2;ratioP2;P2;SDS_P1;SDS_P2;PMS_P1;PMS_P2;Temp;Humidity;BMP_temperature;BMP_pressure;BME280_temperature;BME280_humidity;BME280_pressure;Samples;Min_cycle;Max_cycle;Signal;HPM_P1;HPM_P2
2023/09/04 00:00:25;;;;;;;7.68;6.82;;;;;;;14.19;100.00;102530.69;5054803;28;20033;-70
2023/09/04 00:02:50;;;;;;;7.45;6.75;;;;;;;14.17;100.00;102533.44;5050163;28;20382;-70
2023/09/04 00:05:18;;;;;;;7.40;6.70;;;;;;;14.17;100.00;102532.53;5050914;28;20242;-70
2023/09/04 00:07:44;;;;;;;7.55;6.95;;;;;;;14.13;100.00;102538.97;5051170;28;20698;-70
2023/09/04 00:10:10;;;;;;;7.32;6.72;;;;;;;14.10;100.00;102531.03;5044997;28;20028;-70
2023/09/04 00:12:36;;;;;;;7.72;6.93;;;;;;;14.09;100.00;102529.31;5055380;28;20031;-68
2023/09/04 00:15:01;;;;;;;7.82;7.03;;;;;;;14.01;100.00;102520.69;5051016;28;20036;-69
2023/09/04 00:17:27;;;;;;;7.63;6.90;;;;;;;13.95;100.00;102525.31;5057962;28;20028;-69
2023/09/04 00:19:52;;;;;;;8.00;7.30;;;;;;;13.95;100.00;102525.31;5056495;28;20024;-69
2023/09/04 00:22:17;;;;;;;7.65;6.85;;;;;;;13.94;100.00;102522.72;5055963;28;20302;-70
2023/09/04 00:24:43;;;;;;;8.25;7.45;;;;;;;13.91;100.00;102530.84;5056463;28;20338;-70
2023/09/04 00:27:08;;;;;;;7.65;6.95;;;;;;;13.83;100.00;102517.75;5058711;28;20113;-70
2023/09/04 00:29:34;;;;;;;7.35;6.65;;;;;;;13.72;100.00;102514.63;5055512;28;20024;-70
2023/09/04 00:32:02;;;;;;;15.45;6.72;;;;;;;13.73;100.00;102521.72;5059619;28;20032;-69
2023/09/04 00:34:28;;;;;;;6.63;6.03;;;;;;;13.66;100.00;102531.78;5052942;28;20025;-69
2023/09/04 00:36:53;;;;;;;6.72;6.07;;;;;;;13.60;100.00;102528.47;5055412;28;20033;-69
2023/09/04 00:39:18;;;;;;;8.30;6.75;;;;;;;13.45;100.00;102532.56;5056183;28;20060;-70
2023/09/04 00:41:45;;;;;;;7.10;6.40;;;;;;;13.37;100.00;102531.97;5057168;28;20028;-69
2023/09/04 00:44:10;;;;;;;8.50;6.80;;;;;;;13.39;100.00;102525.63;5058050;28;20028;-71
2023/09/04 00:46:35;;;;;;;8.07;7.28;;;;;;;13.29;100.00;102526.00;5055795;28;20024;-70
2023/09/04 00:49:01;;;;;;;7.90;7.20;;;;;;;13.27;100.00;102531.41;5059109;28;20186;-70
2023/09/04 00:51:27;;;;;;;8.27;7.10;;;;;;;13.27;100.00;102527.88;5059906;28;20024;-69
2023/09/04 00:53:53;;;;;;;7.38;6.68;;;;;;;13.29;100.00;102532.22;5056581;28;20487;-70
2023/09/04 00:56:19;;;;;;;7.25;6.55;;;;;;;13.23;100.00;102529.78;5052718;28;20044;-69
2023/09/04 00:58:45;;;;;;;7.88;7.15;;;;;;;13.25;100.00;102527.94;5056328;28;20333;-69
2023/09/04 01:01:10;;;;;;;8.65;7.13;;;;;;;13.10;100.00;102525.75;5056460;28;20112;-69
2023/09/04 01:03:36;;;;;;;8.85;6.72;;;;;;;13.17;100.00;102527.31;5051761;28;20029;-69
2023/09/04 01:06:02;;;;;;;8.02;6.93;;;;;;;13.13;100.00;102520.31;5058457;28;20020;-69
2023/09/04 01:08:27;;;;;;;7.68;7.00;;;;;;;13.10;100.00;102523.09;5058710;28;20135;-69
2023/09/04 01:11:40;;;;;;;7.80;7.07;;;;;;;13.15;100.00;102529.16;5058899;28;20029;-69
2023/09/04 01:14:13;;;;;;;7.82;7.13;;;;;;;13.11;100.00;102523.03;5027307;28;20052;-69
2023/09/04 01:16:39;;;;;;;7.70;7.00;;;;;;;13.15;100.00;102523.78;5060214;28;20209;-70
2023/09/04 01:19:06;;;;;;;7.82;7.10;;;;;;;13.09;100.00;102524.03;5056388;28;20413;-70
2023/09/04 01:21:35;;;;;;;8.10;7.40;;;;;;;13.05;100.00;102531.28;5053993;28;20103;-70
2023/09/04 01:24:01;;;;;;;7.85;7.03;;;;;;;13.04;100.00;102520.63;5054947;28;20058;-71
2023/09/04 01:27:08;;;;;;;8.57;7.70;;;;;;;13.00;100.00;102518.97;5061102;28;20110;-69
2023/09/04 01:29:55;;;;;;;7.97;7.28;;;;;;;12.92;100.00;102508.56;5047601;28;20046;-69
2023/09/04 01:32:41;;;;;;;9.32;8.10;;;;;;;12.80;100.00;102511.66;5053298;28;20107;-69
2023/09/04 01:35:10;;;;;;;10.30;8.40;;;;;;;12.70;100.00;102511.06;5056755;28;20134;-69
2023/09/04 01:37:37;;;;;;;8.38;7.57;;;;;;;12.73;100.00;102510.09;5059964;28;20115;-69
2023/09/04 01:40:04;;;;;;;9.32;8.43;;;;;;;12.72;100.00;102511.91;5059402;28;20025;-69
2023/09/04 01:42:29;;;;;;;8.73;7.93;;;;;;;12.69;100.00;102514.66;5057868;28;20123;-69
2023/09/04 01:44:55;;;;;;;9.43;8.52;;;;;;;12.70;100.00;102511.94;5059116;28;20119;-69
2023/09/04 01:47:20;;;;;;;9.70;8.52;;;;;;;12.71;100.00;102513.72;5056271;28;20491;-69
2023/09/04 01:49:47;;;;;;;9.88;8.98;;;;;;;12.71;100.00;102513.72;5057766;28;20075;-68
2023/09/04 01:52:12;;;;;;;9.20;8.30;;;;;;;12.70;100.00;102500.38;5056054;28;20035;-69
2023/09/04 01:54:38;;;;;;;10.52;9.30;;;;;;;12.72;100.00;102506.56;5061090;28;20103;-69
2023/09/04 01:57:04;;;;;;;9.30;8.50;;;;;;;12.69;100.00;102514.66;5060737;28;20078;-68
2023/09/04 01:59:29;;;;;;;7.78;7.07;;;;;;;12.60;100.00;102502.50;5061457;28;20025;-69
2023/09/04 02:01:55;;;;;;;8.52;7.63;;;;;;;12.57;100.00;102505.25;5057475;28;20172;-69
2023/09/04 02:04:20;;;;;;;8.43;7.63;;;;;;;12.51;100.00;102509.94;5058157;28;20043;-69
2023/09/04 02:06:46;;;;;;;8.43;7.63;;;;;;;12.42;100.00;102509.31;5054207;28;20326;-68
2023/09/04 02:09:11;;;;;;;8.80;7.93;;;;;;;12.43;100.00;102503.03;5058102;28;21281;-68
2023/09/04 02:11:36;;;;;;;8.77;7.97;;;;;;;12.41;100.00;102504.00;5061034;28;20027;-68
2023/09/04 02:14:02;;;;;;;10.45;8.50;;;;;;;12.44;100.00;102503.91;5063513;28;20097;-68
2023/09/04 02:16:30;;;;;;;9.13;8.32;;;;;;;12.46;100.00;102499.41;5057396;28;20033;-69
2023/09/04 02:18:56;;;;;;;8.52;7.72;;;;;;;12.41;100.00;102490.66;5061591;28;20033;-68
2023/09/04 02:21:21;;;;;;;8.75;7.85;;;;;;;12.36;100.00;102488.13;5057297;28;20029;-69
2023/09/04 02:23:47;;;;;;;8.55;7.78;;;;;;;12.36;100.00;102490.81;5059322;28;20036;-68
2023/09/04 02:26:12;;;;;;;8.93;8.13;;;;;;;12.36;100.00;102488.13;5057098;28;20115;-69
2023/09/04 02:28:38;;;;;;;9.18;8.27;;;;;;;12.34;100.00;102479.31;5061493;28;20024;-68
2023/09/04 02:31:07;;;;;;;8.93;8.05;;;;;;;12.30;100.00;102484.81;5057594;28;20029;-69
2023/09/04 02:33:36;;;;;;;9.38;8.57;;;;;;;12.23;100.00;102476.09;5060608;28;20046;-69
2023/09/04 02:36:01;;;;;;;9.98;8.98;;;;;;;12.19;100.00;102477.13;5058073;28;20021;-69
2023/09/04 02:38:29;;;;;;;10.30;9.30;;;;;;;12.21;100.00;102483.31;5057658;28;20035;-68
2023/09/04 02:40:54;;;;;;;10.10;9.20;;;;;;;12.18;100.00;102470.03;5056483;28;20348;-68
2023/09/04 02:43:20;;;;;;;10.50;9.50;;;;;;;12.19;100.00;102472.66;5056707;28;20513;-68
2023/09/04 02:45:47;;;;;;;10.10;9.20;;;;;;;12.24;100.00;102469.84;5054728;28;20345;-68
2023/09/04 02:48:12;;;;;;;10.65;9.35;;;;;;;12.15;100.00;102473.66;5058201;28;20175;-69
2023/09/04 02:50:40;;;;;;;11.57;9.95;;;;;;;12.06;100.00;102470.44;5061302;28;20521;-69
2023/09/04 02:53:05;;;;;;;11.07;9.98;;;;;;;12.13;100.00;102477.31;5060423;28;20115;-69
2023/09/04 02:55:31;;;;;;;10.75;9.65;;;;;;;12.05;100.00;102474.03;5059092;28;20091;-69
2023/09/04 02:57:57;;;;;;;11.10;10.00;;;;;;;12.04;100.00;102469.59;5062124;28;20032;-68
2023/09/04 03:00:23;;;;;;;10.60;9.70;;;;;;;12.04;100.00;102465.16;5051323;28;20027;-68
2023/09/04 03:02:50;;;;;;;11.98;10.77;;;;;;;11.99;100.00;102463.53;5061308;28;20131;-69
2023/09/04 03:05:16;;;;;;;11.10;10.02;;;;;;;11.97;100.00;102463.59;5061043;28;20357;-68
2023/09/04 03:07:42;;;;;;;12.05;10.88;;;;;;;11.98;100.00;102461.78;5057355;28;20025;-69
2023/09/04 03:10:07;;;;;;;12.55;11.10;;;;;;;11.92;100.00;102455.72;5058535;28;20031;-69
2023/09/04 03:12:33;;;;;;;11.45;10.18;;;;;;;11.90;100.00;102457.53;5053188;28;20506;-69
2023/09/04 03:15:01;;;;;;;11.82;10.63;;;;;;;11.81;100.00;102460.47;5044455;28;20029;-69
2023/09/04 03:17:28;;;;;;;11.82;10.57;;;;;;;11.89;100.00;102458.47;5050598;28;20119;-69
2023/09/04 03:19:54;;;;;;;12.35;11.13;;;;;;;11.85;100.00;102451.47;5047775;28;20059;-70
2023/09/04 03:22:21;;;;;;;12.48;11.32;;;;;;;11.80;100.00;102452.53;5047408;28;20028;-70
2023/09/04 03:24:46;;;;;;;12.25;11.00;;;;;;;11.78;100.00;102452.53;5047268;28;20097;-69
2023/09/04 03:27:11;;;;;;;12.77;11.63;;;;;;;11.79;100.00;102451.66;5048722;28;20032;-69
2023/09/04 03:29:37;;;;;;;13.15;11.93;;;;;;;11.73;100.00;102451.81;5046971;28;20380;-70
2023/09/04 03:32:03;;;;;;;14.05;12.73;;;;;;;11.76;100.00;102454.41;5046451;28;20735;-70
2023/09/04 03:34:29;;;;;;;14.60;13.25;;;;;;;11.77;100.00;102456.16;5048809;28;20090;-69
2023/09/04 03:36:54;;;;;;;15.07;13.40;;;;;;;11.77;100.00;102450.81;5055329;28;20169;-70
2023/09/04 03:39:20;;;;;;;15.55;13.50;;;;;;;11.75;100.00;102455.34;5057873;28;20402;-70
2023/09/04 03:41:46;;;;;;;15.70;14.02;;;;;;;11.74;100.00;102448.22;5053242;28;20036;-70
2023/09/04 03:44:11;;;;;;;16.13;14.43;;;;;;;11.72;100.00;102444.75;5054686;28;20081;-69
2023/09/04 03:46:36;;;;;;;16.67;15.10;;;;;;;11.75;100.00;102441.13;5055648;28;20119;-69
2023/09/04 03:49:02;;;;;;;17.38;15.57;;;;;;;11.74;100.00;102448.22;5058262;28;20131;-69
2023/09/04 03:51:30;;;;;;;16.17;14.60;;;;;;;11.77;100.00;102436.59;5058520;28;20463;-69
2023/09/04 03:54:01;;;;;;;16.35;14.77;;;;;;;11.82;100.00;102445.34;5052617;28;20041;-69
2023/09/04 03:56:26;;;;;;;16.33;14.73;;;;;;;11.79;100.00;102434.75;5053711;28;20035;-69
2023/09/04 03:58:52;;;;;;;16.63;14.98;;;;;;;11.80;100.00;102436.53;5054879;28;20037;-69
2023/09/04 04:01:17;;;;;;;15.85;14.32;;;;;;;11.80;100.00;102441.84;5057529;28;20563;-69
2023/09/04 04:03:43;;;;;;;16.63;14.90;;;;;;;11.82;100.00;102432.00;5055173;28;20039;-69
2023/09/04 04:06:14;;;;;;;17.75;15.95;;;;;;;11.80;100.00;102432.06;5054797;28;20074;-69
2023/09/04 04:08:40;;;;;;;17.83;15.88;;;;;;;11.79;100.00;102435.66;5056130;28;20032;-70
2023/09/04 04:11:06;;;;;;;17.02;15.45;;;;;;;11.78;100.00;102433.00;5049361;28;20036;-69
2023/09/04 04:13:31;;;;;;;18.15;16.35;;;;;;;11.78;100.00;102431.22;5055513;28;20032;-70
2023/09/04 04:16:01;;;;;;;18.88;16.88;;;;;;;11.80;100.00;102439.19;5055325;28;20032;-69
2023/09/04 04:18:27;;;;;;;18.17;16.45;;;;;;;11.76;100.00;102430.41;5057639;28;20130;-69
2023/09/04 04:20:56;;;;;;;19.45;17.55;;;;;;;11.82;100.00;102432.84;5056603;28;20044;-69
2023/09/04 04:23:22;;;;;;;19.17;17.17;;;;;;;11.80;100.00;102432.06;5056869;28;20039;-69
2023/09/04 04:25:49;;;;;;;18.33;16.63;;;;;;;11.83;100.00;102426.66;5051999;28;20037;-69
2023/09/04 04:28:18;;;;;;;20.58;18.35;;;;;;;11.84;100.00;102428.41;5055136;28;20025;-69
2023/09/04 04:30:44;;;;;;;18.90;16.98;;;;;;;11.84;100.00;102423.06;5053895;28;20462;-69
2023/09/04 04:33:10;;;;;;;19.42;17.63;;;;;;;11.86;100.00;102423.88;5058387;28;20116;-69
2023/09/04 04:35:35;;;;;;;19.98;17.98;;;;;;;11.85;100.00;102422.13;5057061;28;20036;-69
2023/09/04 04:38:00;;;;;;;19.05;17.15;;;;;;;11.87;100.00;102425.66;5054247;28;20123;-69
2023/09/04 04:40:26;;;;;;;19.05;17.08;;;;;;;11.84;100.00;102423.06;5059171;28;20173;-70
2023/09/04 04:42:51;;;;;;;19.38;17.58;;;;;;;11.86;100.00;102415.88;5055542;28;20033;-69
2023/09/04 04:45:17;;;;;;;20.65;18.63;;;;;;;11.82;100.00;102414.19;5050015;28;20749;-69
2023/09/04 04:47:42;;;;;;;20.38;18.38;;;;;;;11.84;100.00;102416.84;5060301;28;20471;-69
2023/09/04 04:50:11;;;;;;;20.30;18.27;;;;;;;11.78;100.00;102412.53;5059629;28;20052;-69
2023/09/04 04:52:37;;;;;;;20.40;18.35;;;;;;;11.84;100.00;102417.72;5055768;28;20066;-69
2023/09/04 04:55:02;;;;;;;21.33;18.92;;;;;;;11.81;100.00;102420.44;5055856;28;20028;-69
2023/09/04 04:57:28;;;;;;;22.98;19.30;;;;;;;11.75;100.00;102420.66;5053979;28;20135;-69
2023/09/04 04:59:53;;;;;;;22.50;20.30;;;;;;;11.77;100.00;102417.94;5055873;28;20075;-69
2023/09/04 05:02:21;;;;;;;21.67;19.58;;;;;;;11.78;100.00;102417.00;5058961;28;20028;-69
2023/09/04 05:04:47;;;;;;;21.20;19.20;;;;;;;11.77;100.00;102407.25;5062775;28;20128;-69
2023/09/04 05:07:13;;;;;;;21.52;19.33;;;;;;;11.83;100.00;102408.00;5050115;28;20033;-69
2023/09/04 05:09:38;;;;;;;21.83;19.70;;;;;;;11.81;100.00;102412.44;5061453;28;20086;-69
2023/09/04 05:12:04;;;;;;;21.02;18.88;;;;;;;11.81;100.00;102408.91;5057057;28;20025;-69
2023/09/04 05:14:30;;;;;;;20.65;18.77;;;;;;;11.85;100.00;102411.47;5063807;28;20502;-69
2023/09/04 05:16:55;;;;;;;22.30;19.90;;;;;;;11.87;100.00;102409.63;5061289;28;20032;-69
2023/09/04 05:19:21;;;;;;;22.77;20.48;;;;;;;11.87;100.00;102411.41;5060132;28;20029;-69
2023/09/04 05:21:47;;;;;;;21.75;19.60;;;;;;;11.96;100.00;102422.69;5058536;28;20017;-70
2023/09/04 05:24:13;;;;;;;22.10;19.67;;;;;;;11.99;100.00;102420.81;5061741;28;20016;-67
2023/09/04 05:26:38;;;;;;;21.33;19.33;;;;;;;12.03;100.00;102417.13;5061536;28;20474;-68
2023/09/04 05:29:03;;;;;;;21.60;19.50;;;;;;;12.02;100.00;102418.94;5057977;28;20025;-68
2023/09/04 05:31:29;;;;;;;21.77;19.65;;;;;;;12.07;100.00;102419.66;5061178;28;20115;-69
2023/09/04 05:33:54;;;;;;;21.70;19.45;;;;;;;12.12;100.00;102417.75;5058300;28;20079;-69
2023/09/04 05:36:20;;;;;;;21.63;19.50;;;;;;;12.16;100.00;102418.47;5061304;28;20020;-69
2023/09/04 05:38:46;;;;;;;21.90;19.70;;;;;;;12.15;100.00;102419.41;5061456;28;20428;-69
2023/09/04 05:41:12;;;;;;;21.65;19.42;;;;;;;12.27;100.00;102424.34;5062241;28;20039;-69
2023/09/04 05:43:37;;;;;;;21.45;19.33;;;;;;;12.33;100.00;102425.94;5061662;28;20016;-69
2023/09/04 05:46:03;;;;;;;22.65;20.45;;;;;;;12.36;100.00;102432.06;5062015;28;20510;-69
2023/09/04 05:48:31;;;;;;;20.80;18.88;;;;;;;12.46;100.00;102422.84;5062427;28;20095;-69
2023/09/04 05:51:00;;;;;;;22.25;20.05;;;;;;;12.51;100.00;102429.81;5054195;28;20033;-69
2023/09/04 05:53:25;;;;;;;21.60;19.42;;;;;;;12.55;100.00;102423.44;5062669;28;20032;-69
2023/09/04 05:56:09;;;;;;;20.58;18.58;;;;;;;12.60;100.00;102429.50;5052642;28;20093;-68
2023/09/04 05:58:44;;;;;;;21.17;19.08;;;;;;;12.70;100.00;102431.78;5059903;28;20056;-69
2023/09/04 06:01:11;;;;;;;21.95;19.77;;;;;;;12.77;100.00;102427.13;5056827;28;20103;-69
2023/09/04 06:03:36;;;;;;;21.05;19.10;;;;;;;12.99;100.00;102429.03;5060026;28;20081;-68
2023/09/04 06:06:02;;;;;;;20.90;18.80;;;;;;;13.15;100.00;102430.22;5060464;28;20068;-68
2023/09/04 06:08:31;;;;;;;20.45;18.45;;;;;;;13.36;100.00;102431.28;5056039;28;20491;-68
2023/09/04 06:10:56;;;;;;;19.58;17.65;;;;;;;13.49;100.00;102431.69;5058486;28;20068;-69
2023/09/04 06:13:22;;;;;;;20.00;17.98;;;;;;;13.68;100.00;102427.38;5056200;28;20053;-69
2023/09/04 06:15:51;;;;;;;19.13;17.20;;;;;;;13.89;100.00;102433.69;5059251;28;20518;-69
2023/09/04 06:18:16;;;;;;;18.48;16.75;;;;;;;14.11;100.00;102433.72;5056347;28;20062;-69
2023/09/04 06:20:42;;;;;;;18.60;16.65;;;;;;;14.22;100.00;102422.56;5056876;28;20482;-69
2023/09/04 06:23:07;;;;;;;18.75;16.95;;;;;;;14.46;100.00;102429.56;5052185;28;20013;-70
2023/09/04 06:25:38;;;;;;;17.73;16.05;;;;;;;14.57;100.00;102423.81;5057937;28;20040;-70
2023/09/04 06:28:05;;;;;;;18.52;16.67;;;;;;;14.75;100.00;102425.69;5058535;28;20028;-69
2023/09/04 06:30:31;;;;;;;18.27;16.48;;;;;;;14.89;100.00;102425.09;5055699;28;20469;-69
2023/09/04 06:32:56;;;;;;;17.92;15.30;;;;;;;14.99;100.00;102415.69;5051055;28;21396;-68
2023/09/04 06:35:22;;;;;;;17.50;15.75;;;;;;;15.17;100.00;102425.63;5055349;28;20514;-69
2023/09/04 06:37:47;;;;;;;16.77;15.07;;;;;;;15.29;100.00;102423.31;5056048;28;20559;-69
2023/09/04 06:40:13;;;;;;;15.60;14.20;;;;;;;15.27;100.00;102418.03;5057489;28;20072;-69
2023/09/04 06:42:38;;;;;;;16.08;14.50;;;;;;;15.45;100.00;102425.22;5056961;28;20479;-69
2023/09/04 06:45:04;;;;;;;16.25;14.70;;;;;;;15.57;100.00;102425.59;5054769;28;20109;-68
2023/09/04 06:47:30;;;;;;;15.73;14.27;;;;;;;15.62;100.00;102426.25;5057332;28;21403;-67
2023/09/04 06:49:55;;;;;;;15.57;14.18;;;;;;;15.88;100.00;102425.94;5061943;28;20474;-68
2023/09/04 06:52:20;;;;;;;16.00;14.38;;;;;;;16.07;100.00;102425.03;5058797;28;20025;-68
2023/09/04 06:54:46;;;;;;;14.52;13.13;;;;;;;16.21;100.00;102430.56;5059404;28;20542;-68
2023/09/04 06:57:11;;;;;;;15.80;14.40;;;;;;;16.47;100.00;102428.41;5052415;28;20029;-68
2023/09/04 06:59:37;;;;;;;13.32;12.13;;;;;;;16.60;100.00;102427.72;5054642;28;20191;-69
2023/09/04 07:02:03;;;;;;;14.60;13.02;;;;;;;16.77;100.00;102424.22;5049297;28;20459;-68
2023/09/04 07:04:29;;;;;;;13.52;11.95;;;;;;;16.97;100.00;102423.16;5049694;28;20143;-68
2023/09/04 07:06:54;;;;;;;13.52;12.30;;;;;;;17.26;100.00;102421.59;5049504;28;20573;-68
2023/09/04 07:09:19;;;;;;;14.02;12.63;;;;;;;17.52;100.00;102425.56;5051072;28;20036;-68
2023/09/04 07:11:45;;;;;;;13.30;12.10;;;;;;;17.91;100.00;102419.81;5054025;28;20024;-68
2023/09/04 07:14:10;;;;;;;12.65;11.45;;;;;;;18.39;97.79;102417.94;5053581;28;20112;-69
2023/09/04 07:16:37;;;;;;;12.27;11.18;;;;;;;18.65;95.75;102420.91;5052572;28;20373;-68
2023/09/04 07:19:03;;;;;;;12.60;11.40;;;;;;;19.16;92.49;102416.03;5053525;28;20029;-68
2023/09/04 07:21:29;;;;;;;12.20;11.00;;;;;;;19.51;91.86;102408.38;5059926;28;20107;-69
2023/09/04 07:23:54;;;;;;;11.60;10.40;;;;;;;19.78;87.86;102408.50;5055740;28;20128;-68
2023/09/04 07:26:19;;;;;;;11.07;9.93;;;;;;;20.04;88.09;102414.88;5052336;28;20054;-69
2023/09/04 07:28:44;;;;;;;11.05;10.05;;;;;;;20.36;86.03;102404.63;5051480;28;20118;-69
2023/09/04 07:31:18;;;;;;;10.30;9.40;;;;;;;20.66;85.45;102406.25;5052343;28;20032;-69
2023/09/04 07:33:45;;;;;;;10.70;9.70;;;;;;;21.18;80.87;102401.72;5053090;28;20094;-69
2023/09/04 07:36:11;;;;;;;10.13;9.13;;;;;;;21.54;80.04;102406.38;5058892;28;20514;-68
2023/09/04 07:38:36;;;;;;;10.07;8.75;;;;;;;21.95;77.11;102413.31;5052333;28;20025;-68
2023/09/04 07:41:03;;;;;;;9.40;8.50;;;;;;;22.21;75.21;102409.56;5053144;28;20525;-68
2023/09/04 07:43:32;;;;;;;9.02;7.75;;;;;;;22.59;74.83;102424.75;5052187;28;20025;-69
2023/09/04 07:46:01;;;;;;;7.97;7.18;;;;;;;22.98;71.54;102417.22;5046397;28;20048;-68
2023/09/04 07:48:26;;;;;;;8.85;7.97;;;;;;;23.33;72.00;102417.16;5048697;28;20037;-68
2023/09/04 07:50:52;;;;;;;8.45;7.07;;;;;;;23.74;69.43;102407.50;5043302;28;20398;-68
2023/09/04 07:53:18;;;;;;;8.02;7.32;;;;;;;23.76;67.00;102408.28;5051706;28;20066;-68
2023/09/04 07:55:45;;;;;;;8.02;7.22;;;;;;;23.92;67.26;102408.75;5056571;28;20029;-69
2023/09/04 07:58:10;;;;;;;7.43;6.65;;;;;;;24.29;65.88;102406.53;5048311;28;20032;-69
2023/09/04 08:00:36;;;;;;;8.02;6.93;;;;;;;24.55;61.37;102409.78;5053632;28;20035;-69
2023/09/04 08:03:03;;;;;;;7.30;6.68;;;;;;;24.56;60.67;102403.31;5058396;28;20264;-69
2023/09/04 08:05:31;;;;;;;7.53;6.78;;;;;;;24.53;59.38;102411.75;5061698;28;20206;-69
2023/09/04 08:07:57;;;;;;;7.65;6.93;;;;;;;24.39;58.34;102417.50;5054522;28;20021;-69
2023/09/04 08:10:22;;;;;;;7.45;6.78;;;;;;;24.47;59.31;102408.69;5055833;28;20031;-68
2023/09/04 08:12:48;;;;;;;6.88;6.13;;;;;;;25.03;59.35;102413.81;5054515;28;20316;-68
2023/09/04 08:15:13;;;;;;;9.35;6.30;;;;;;;25.29;58.40;102401.53;5056010;28;20021;-68
2023/09/04 08:17:40;;;;;;;7.07;6.47;;;;;;;25.33;57.19;102400.25;5058905;28;20036;-69
2023/09/04 08:20:07;;;;;;;6.88;6.13;;;;;;;25.71;56.37;102397.78;5056812;28;20047;-68
2023/09/04 08:22:33;;;;;;;6.43;5.75;;;;;;;25.97;56.57;102395.44;5060513;28;20099;-68
2023/09/04 08:25:01;;;;;;;6.35;5.75;;;;;;;26.19;55.21;102403.34;5058247;28;20040;-69
2023/09/04 08:27:27;;;;;;;6.43;5.72;;;;;;;26.86;53.66;102396.16;5050527;28;20527;-69
2023/09/04 08:29:52;;;;;;;6.20;5.65;;;;;;;27.25;51.89;102393.31;5060373;28;20410;-69
2023/09/04 08:32:17;;;;;;;6.40;5.80;;;;;;;27.63;49.16;102392.31;5057590;28;20806;-69
2023/09/04 08:34:43;;;;;;;7.72;5.95;;;;;;;27.93;51.58;102379.34;5065668;28;20055;-69
2023/09/04 08:37:08;;;;;;;6.28;5.68;;;;;;;28.43;48.47;102392.50;5062942;28;20055;-69
2023/09/04 08:39:33;;;;;;;5.95;5.45;;;;;;;28.17;47.68;102387.78;5065863;28;20024;-69
2023/09/04 08:42:02;;;;;;;5.72;5.22;;;;;;;28.60;47.80;102399.84;5058127;28;20050;-69
2023/09/04 08:44:30;;;;;;;7.93;5.95;;;;;;;28.74;45.71;102406.63;5060386;28;20530;-69
2023/09/04 08:46:58;;;;;;;7.10;5.43;;;;;;;29.04;46.04;102408.06;5057979;28;20025;-68
2023/09/04 08:49:25;;;;;;;6.18;5.10;;;;;;;29.19;45.51;102406.44;5044045;28;20496;-68
2023/09/04 08:51:52;;;;;;;5.68;5.07;;;;;;;29.64;43.85;102396.22;5056180;28;20056;-70
2023/09/04 08:54:17;;;;;;;5.57;4.80;;;;;;;30.06;42.98;102393.44;5061603;28;20020;-70
2023/09/04 08:56:43;;;;;;;5.85;4.60;;;;;;;30.44;42.02;102393.84;5056546;28;20040;-69
2023/09/04 08:59:08;;;;;;;5.90;4.40;;;;;;;30.63;40.88;102393.47;5058604;28;20021;-69
2023/09/04 09:01:36;;;;;;;5.20;4.70;;;;;;;30.75;40.18;102403.13;5055801;28;20333;-69
2023/09/04 09:04:02;;;;;;;4.85;4.10;;;;;;;31.04;39.35;102392.59;5058260;28;20055;-69
2023/09/04 09:06:32;;;;;;;7.35;3.75;;;;;;;31.46;38.84;102387.66;5056525;28;20173;-71
2023/09/04 09:09:00;;;;;;;3.70;3.40;;;;;;;31.99;37.46;102385.19;5055234;28;20028;-70
2023/09/04 09:11:26;;;;;;;4.03;3.42;;;;;;;32.36;35.37;102381.63;5053736;28;20020;-70
2023/09/04 09:13:51;;;;;;;3.80;2.92;;;;;;;32.87;36.47;102375.50;5054474;28;20051;-69
2023/09/04 09:16:18;;;;;;;6.07;3.78;;;;;;;33.02;35.63;102386.56;5049126;28;20032;-68
2023/09/04 09:18:44;;;;;;;5.55;3.33;;;;;;;32.82;35.28;102389.84;5056968;28;20170;-70
2023/09/04 09:21:30;;;;;;;4.07;3.03;;;;;;;33.19;36.77;102391.72;5049223;28;20029;-69
2023/09/04 09:24:25;;;;;;;3.20;2.40;;;;;;;33.59;35.34;102381.22;5052938;28;20031;-72
2023/09/04 09:26:50;;;;;;;3.22;2.92;;;;;;;33.62;33.62;102383.59;5053379;28;20060;-73
2023/09/04 09:29:19;;;;;;;4.88;3.63;;;;;;;34.02;32.79;102380.47;5056874;28;20457;-70
2023/09/04 09:31:47;;;;;;;3.20;2.92;;;;;;;34.22;32.58;102386.19;5053760;28;20029;-71
2023/09/04 09:34:13;;;;;;;3.85;3.20;;;;;;;34.34;31.45;102398.44;5056966;28;20035;-70
2023/09/04 09:36:39;;;;;;;3.00;2.65;;;;;;;34.77;31.67;102390.09;5053655;28;20025;-71
2023/09/04 09:39:05;;;;;;;3.20;2.60;;;;;;;35.33;30.57;102395.63;5057453;28;20533;-71
2023/09/04 09:41:31;;;;;;;4.13;3.30;;;;;;;35.65;31.54;102388.53;5058491;28;20533;-71
2023/09/04 09:44:02;;;;;;;3.65;2.65;;;;;;;35.73;30.59;102384.72;5056820;28;20032;-72
2023/09/04 09:46:29;;;;;;;3.85;2.72;;;;;;;36.19;30.33;102384.00;5055467;28;20032;-72
2023/09/04 09:48:55;;;;;;;2.85;2.60;;;;;;;36.65;28.64;102382.13;5049429;28;20049;-71
2023/09/04 09:51:20;;;;;;;3.97;3.50;;;;;;;36.48;29.42;102380.84;5057500;28;20032;-71
2023/09/04 09:53:48;;;;;;;3.72;3.42;;;;;;;35.91;28.91;102377.56;5056481;28;20472;-70
2023/09/04 09:56:15;;;;;;;4.97;3.55;;;;;;;35.46;29.27;102384.59;5053843;28;20033;-71
2023/09/04 09:58:45;;;;;;;4.47;3.28;;;;;;;35.18;30.15;102385.50;5056528;28;20024;-71
2023/09/04 10:01:15;;;;;;;4.85;3.60;;;;;;;34.67;30.45;102390.47;5061736;28;20037;-70
2023/09/04 10:03:41;;;;;;;3.92;3.40;;;;;;;34.74;30.39;102382.19;5060242;28;20016;-72
2023/09/04 10:06:08;;;;;;;4.55;3.42;;;;;;;34.88;30.00;102375.72;5053310;28;20406;-71
2023/09/04 10:08:40;;;;;;;3.60;3.30;;;;;;;35.09;30.09;102377.59;5054099;28;20040;-71
2023/09/04 10:11:18;;;;;;;3.53;2.97;;;;;;;35.31;30.00;102367.28;5053278;28;20029;-71
2023/09/04 10:13:54;;;;;;;3.63;2.90;;;;;;;35.12;29.55;102366.97;5060531;28;20135;-71
2023/09/04 10:16:31;;;;;;;3.83;3.35;;;;;;;35.36;29.18;102368.34;5049872;28;20206;-71
2023/09/04 10:18:59;;;;;;;3.33;2.85;;;;;;;35.89;28.68;102374.13;5054400;28;20474;-70
2023/09/04 10:21:29;;;;;;;3.75;3.20;;;;;;;36.06;27.71;102365.44;5050822;28;20621;-70
2023/09/04 10:24:02;;;;;;;3.05;2.75;;;;;;;35.77;27.90;102364.72;5046716;28;20037;-72
2023/09/04 10:26:58;;;;;;;2.95;2.65;;;;;;;36.23;28.82;102372.28;5052658;28;20033;-71
2023/09/04 10:29:26;;;;;;;3.67;2.78;;;;;;;36.54;27.57;102371.69;5060922;28;20033;-71
2023/09/04 10:31:52;;;;;;;4.43;2.28;;;;;;;36.94;26.23;102360.56;5055474;28;20081;-71
2023/09/04 10:34:19;;;;;;;3.42;2.30;;;;;;;37.56;24.87;102352.69;5049380;28;20033;-72
2023/09/04 10:36:46;;;;;;;2.42;2.22;;;;;;;38.19;24.43;102346.31;5052995;28;20943;-72
2023/09/04 10:39:12;;;;;;;2.25;2.05;;;;;;;38.19;23.59;102346.31;5057932;28;20111;-71
2023/09/04 10:41:38;;;;;;;3.90;2.13;;;;;;;38.12;23.62;102344.41;5056210;28;20023;-72
2023/09/04 10:44:04;;;;;;;2.35;2.15;;;;;;;38.51;23.82;102345.22;5057261;28;20033;-71
2023/09/04 10:46:32;;;;;;;2.60;1.98;;;;;;;38.41;23.87;102352.34;5056780;28;20135;-73
2023/09/04 10:48:58;;;;;;;2.80;2.28;;;;;;;38.47;23.72;102349.53;5060883;28;20045;-72
2023/09/04 10:51:37;;;;;;;3.55;2.13;;;;;;;38.96;24.69;102349.69;5056632;28;20043;-69
2023/09/04 10:54:14;;;;;;;3.10;2.15;;;;;;;38.92;24.77;102338.19;5055821;28;20028;-70
2023/09/04 10:56:56;;;;;;;2.72;2.20;;;;;;;38.58;24.34;102339.56;5053009;28;20097;-70
2023/09/04 10:59:21;;;;;;;4.85;2.30;;;;;;;38.27;23.21;102332.97;5048067;28;20096;-70
2023/09/04 11:01:47;;;;;;;6.07;3.10;;;;;;;37.92;24.04;102327.06;5051751;28;20049;-71
2023/09/04 11:04:30;;;;;;;3.80;2.40;;;;;;;38.34;24.82;102327.41;5057588;28;20016;-72
2023/09/04 11:07:20;;;;;;;2.58;2.35;;;;;;;38.39;24.36;102323.94;5055889;28;20034;-71
2023/09/04 11:09:52;;;;;;;4.47;2.78;;;;;;;38.57;23.56;102327.59;5051419;28;20025;-71
2023/09/04 11:12:19;;;;;;;2.47;2.22;;;;;;;38.13;22.15;102321.13;5052371;28;20028;-71
2023/09/04 11:14:45;;;;;;;3.40;2.40;;;;;;;37.97;23.26;102305.00;5055234;28;20450;-70